Time;durP1;ratioP1;P1;durP2;ratioP2;P2;SDS_P1;SDS_P2;PMS_P1;PMS_P2;Temp;Humidity;BMP_temperature;BMP_pressure;BME280_temperature;BME280_humidity;BME280_pressure;Samples;Min_cycle;Max_cycle;Signal;HPM_P1;HPM_P2
2021/01/24 00:00:51;;;;;;;7.57;2.80;;;;;;;;;;5033353;28;20103;-56
2021/01/24 00:03:18;;;;;;;12.07;4.30;;;;;;;;;;5031103;28;20030;-56
2021/01/24 00:05:44;;;;;;;34.95;11.68;;;;;;;;;;5021300;28;20560;-57
2021/01/24 00:08:11;;;;;;;6.93;2.50;;;;;;;;;;5025347;28;20536;-58
2021/01/24 00:10:37;;;;;;;4.25;1.95;;;;;;;;;;5031633;28;20045;-56
2021/01/24 00:13:03;;;;;;;3.35;2.00;;;;;;;;;;5032660;28;20420;-57
2021/01/24 00:15:29;;;;;;;4.43;1.58;;;;;;;;;;5033896;28;20022;-57
2021/01/24 00:17:55;;;;;;;5.20;2.50;;;;;;;;;;5033963;28;20029;-57
2021/01/24 00:20:21;;;;;;;5.40;3.20;;;;;;;;;;5033008;28;20021;-57
2021/01/24 00:22:47;;;;;;;4.93;2.45;;;;;;;;;;5033793;28;20070;-57
2021/01/24 00:25:13;;;;;;;3.72;1.48;;;;;;;;;;5032646;28;20160;-56
2021/01/24 00:27:39;;;;;;;5.80;2.45;;;;;;;;;;5033042;28;20385;-57
2021/01/24 00:30:06;;;;;;;4.78;1.92;;;;;;;;;;5033535;28;20037;-56
2021/01/24 00:32:33;;;;;;;4.97;2.17;;;;;;;;;;5033319;28;20045;-58
2021/01/24 00:34:59;;;;;;;2.38;1.15;;;;;;;;;;5033852;28;20037;-55
2021/01/24 00:37:25;;;;;;;3.40;1.45;;;;;;;;;;5019065;28;20022;-56
2021/01/24 00:39:51;;;;;;;7.22;2.05;;;;;;;;;;5031692;28;20040;-57
2021/01/24 00:42:17;;;;;;;4.47;1.30;;;;;;;;;;5029308;28;20025;-56
2021/01/24 00:44:43;;;;;;;2.28;1.08;;;;;;;;;;5030760;28;20479;-54
2021/01/24 00:47:09;;;;;;;1.55;0.70;;;;;;;;;;5030378;28;20686;-54
2021/01/24 00:49:35;;;;;;;1.50;1.00;;;;;;;;;;5028634;28;20461;-54
2021/01/24 00:52:01;;;;;;;3.45;1.95;;;;;;;;;;5031260;28;20029;-56
2021/01/24 00:54:28;;;;;;;5.57;2.60;;;;;;;;;;5030702;28;20024;-56
2021/01/24 00:56:54;;;;;;;2.15;1.13;;;;;;;;;;5030697;28;20324;-57
2021/01/24 00:59:20;;;;;;;3.50;1.40;;;;;;;;;;5032071;28;20053;-54
2021/01/24 01:01:46;;;;;;;2.85;1.65;;;;;;;;;;5030863;28;20029;-54
2021/01/24 01:04:13;;;;;;;3.85;2.25;;;;;;;;;;5030325;28;20104;-54
2021/01/24 01:06:39;;;;;;;4.15;2.30;;;;;;;;;;5028702;28;20428;-54
2021/01/24 01:09:05;;;;;;;3.80;1.00;;;;;;;;;;5029150;28;20034;-54
2021/01/24 01:11:31;;;;;;;4.35;2.45;;;;;;;;;;5027472;28;20049;-54
2021/01/24 01:13:57;;;;;;;3.47;1.88;;;;;;;;;;5028287;28;20026;-56
2021/01/24 01:16:23;;;;;;;8.05;4.07;;;;;;;;;;5027837;28;20033;-54
2021/01/24 01:18:49;;;;;;;7.65;4.10;;;;;;;;;;5030608;28;20022;-54
2021/01/24 01:21:15;;;;;;;15.55;7.68;;;;;;;;;;5026912;28;20026;-54
2021/01/24 01:23:41;;;;;;;6.70;3.00;;;;;;;;;;5028893;28;20017;-54
2021/01/24 01:26:07;;;;;;;6.45;2.88;;;;;;;;;;5029867;28;20533;-54
2021/01/24 01:28:33;;;;;;;4.47;2.47;;;;;;;;;;5029682;28;20539;-55
2021/01/24 01:30:59;;;;;;;2.22;1.20;;;;;;;;;;5029312;28;20014;-54
2021/01/24 01:33:25;;;;;;;2.25;0.70;;;;;;;;;;5031285;28;20029;-54
2021/01/24 01:35:51;;;;;;;1.38;0.80;;;;;;;;;;5031698;28;20499;-54
2021/01/24 01:38:18;;;;;;;2.13;1.05;;;;;;;;;;5027316;28;20030;-54
2021/01/24 01:40:44;;;;;;;2.72;1.50;;;;;;;;;;5029419;28;20104;-54
2021/01/24 01:43:10;;;;;;;4.10;2.10;;;;;;;;;;5028234;28;20033;-54
2021/01/24 01:45:36;;;;;;;3.90;1.65;;;;;;;;;;5027830;28;20034;-55
2021/01/24 01:48:02;;;;;;;2.28;0.80;;;;;;;;;;5029750;28;20025;-54
2021/01/24 01:50:28;;;;;;;2.17;1.05;;;;;;;;;;5031371;28;20043;-54
2021/01/24 01:52:54;;;;;;;2.03;1.08;;;;;;;;;;5029090;28;20018;-54
2021/01/24 01:55:20;;;;;;;3.05;1.10;;;;;;;;;;5015072;28;20053;-56
2021/01/24 01:57:46;;;;;;;1.95;0.90;;;;;;;;;;5028862;28;20036;-55
2021/01/24 02:00:12;;;;;;;2.03;0.90;;;;;;;;;;5025578;28;20064;-57
2021/01/24 02:02:38;;;;;;;1.83;0.90;;;;;;;;;;5023550;28;20141;-56
2021/01/24 02:05:07;;;;;;;1.85;0.95;;;;;;;;;;5020261;28;20120;-57
2021/01/24 02:07:45;;;;;;;1.65;0.80;;;;;;;;;;5016952;28;20029;-56
2021/01/24 02:10:11;;;;;;;5.90;2.47;;;;;;;;;;5016694;28;20026;-55
2021/01/24 02:12:55;;;;;;;1.60;0.75;;;;;;;;;;5020462;28;20053;-56
2021/01/24 02:15:22;;;;;;;1.23;0.50;;;;;;;;;;5032411;28;20461;-56
2021/01/24 02:17:53;;;;;;;1.52;0.60;;;;;;;;;;5032158;28;20022;-58
2021/01/24 02:20:19;;;;;;;1.13;0.50;;;;;;;;;;5032152;28;20108;-56
2021/01/24 02:22:45;;;;;;;0.73;0.47;;;;;;;;;;5032274;28;20025;-56
2021/01/24 02:25:18;;;;;;;0.98;0.38;;;;;;;;;;5023359;28;20113;-56
2021/01/24 02:27:44;;;;;;;;;;;;;;;;;;5014938;28;20476;-56
2021/01/24 02:30:22;;;;;;;0.90;0.32;;;;;;;;;;5021770;28;19944;-56
2021/01/24 02:32:51;;;;;;;0.90;0.50;;;;;;;;;;5031611;28;20125;-55
2021/01/24 02:35:18;;;;;;;1.00;0.50;;;;;;;;;;5030756;28;20070;-57
2021/01/24 02:37:44;;;;;;;0.82;0.47;;;;;;;;;;5032183;28;20362;-56
2021/01/24 02:40:11;;;;;;;4.68;0.57;;;;;;;;;;5032938;28;20033;-56
2021/01/24 02:42:38;;;;;;;0.65;0.38;;;;;;;;;;5033261;28;20040;-56
2021/01/24 02:45:05;;;;;;;1.60;0.30;;;;;;;;;;5034652;28;20132;-55
2021/01/24 02:47:31;;;;;;;0.95;0.38;;;;;;;;;;5034989;28;20025;-56
2021/01/24 02:49:58;;;;;;;1.17;0.20;;;;;;;;;;5030187;28;20079;-56
2021/01/24 02:52:24;;;;;;;0.98;0.30;;;;;;;;;;5033165;28;20508;-56
2021/01/24 02:54:51;;;;;;;1.13;0.50;;;;;;;;;;5032792;28;20071;-56
2021/01/24 02:57:18;;;;;;;1.25;0.32;;;;;;;;;;5033839;28;20034;-56
2021/01/24 02:59:44;;;;;;;2.65;1.23;;;;;;;;;;5033705;28;20136;-55
2021/01/24 03:02:10;;;;;;;1.30;0.50;;;;;;;;;;5032862;28;20030;-55
2021/01/24 03:04:36;;;;;;;0.95;0.30;;;;;;;;;;5033884;28;20083;-55
2021/01/24 03:07:04;;;;;;;0.60;0.30;;;;;;;;;;5031195;28;20038;-56
2021/01/24 03:09:30;;;;;;;1.00;0.32;;;;;;;;;;5032373;28;20029;-56
2021/01/24 03:11:59;;;;;;;0.75;0.30;;;;;;;;;;5030233;28;20037;-56
2021/01/24 03:14:26;;;;;;;1.48;0.20;;;;;;;;;;5024788;28;20071;-56
2021/01/24 03:16:55;;;;;;;1.55;0.40;;;;;;;;;;5028101;28;20283;-56
2021/01/24 03:19:22;;;;;;;1.80;0.30;;;;;;;;;;5023193;28;20448;-56
2021/01/24 03:21:52;;;;;;;0.80;0.38;;;;;;;;;;5033191;28;20358;-57
2021/01/24 03:24:19;;;;;;;0.85;0.30;;;;;;;;;;5024323;28;20030;-56
2021/01/24 03:26:46;;;;;;;1.00;0.30;;;;;;;;;;5022846;28;20045;-56
2021/01/24 03:29:13;;;;;;;1.13;0.50;;;;;;;;;;5022890;28;20140;-55
2021/01/24 03:31:39;;;;;;;1.20;0.70;;;;;;;;;;5025745;28;20033;-56
2021/01/24 03:34:08;;;;;;;3.45;1.90;;;;;;;;;;5020398;28;20377;-56
2021/01/24 03:36:34;;;;;;;6.78;4.45;;;;;;;;;;5029409;28;20025;-56
2021/01/24 03:39:00;;;;;;;4.45;2.10;;;;;;;;;;5023141;28;20592;-56
2021/01/24 03:41:26;;;;;;;7.70;5.85;;;;;;;;;;5023675;28;20048;-56
2021/01/24 03:43:52;;;;;;;4.07;2.50;;;;;;;;;;5027801;28;20153;-57
2021/01/24 03:46:18;;;;;;;7.05;5.10;;;;;;;;;;5027432;28;20037;-54
2021/01/24 03:48:44;;;;;;;1.10;0.65;;;;;;;;;;5027466;28;20021;-56
2021/01/24 03:51:10;;;;;;;1.20;0.60;;;;;;;;;;5030893;28;20056;-55
2021/01/24 03:53:36;;;;;;;1.95;0.77;;;;;;;;;;5030850;28;20477;-58
2021/01/24 03:56:02;;;;;;;4.07;1.67;;;;;;;;;;5032506;28;20036;-57
2021/01/24 03:58:28;;;;;;;1.95;0.60;;;;;;;;;;5031260;28;20030;-56
2021/01/24 04:00:54;;;;;;;1.15;0.80;;;;;;;;;;5028217;28;20113;-56
2021/01/24 04:03:20;;;;;;;1.25;0.50;;;;;;;;;;5026353;28;20038;-56
2021/01/24 04:05:47;;;;;;;2.92;1.27;;;;;;;;;;5032229;28;20064;-55
2021/01/24 04:08:14;;;;;;;4.28;1.38;;;;;;;;;;5028988;28;20025;-56
2021/01/24 04:10:40;;;;;;;2.75;1.40;;;;;;;;;;5028117;28;20379;-56
2021/01/24 04:13:06;;;;;;;2.45;0.95;;;;;;;;;;5027857;28;20048;-56
2021/01/24 04:15:32;;;;;;;1.60;0.50;;;;;;;;;;5029887;28;20061;-56
2021/01/24 04:17:58;;;;;;;2.10;0.50;;;;;;;;;;5033133;28;20026;-57
2021/01/24 04:20:24;;;;;;;1.38;0.50;;;;;;;;;;5029270;28;20033;-56
2021/01/24 04:22:50;;;;;;;2.92;0.73;;;;;;;;;;5032385;28;20079;-57
2021/01/24 04:25:18;;;;;;;0.88;0.40;;;;;;;;;;5026967;28;20033;-55
2021/01/24 04:27:45;;;;;;;1.83;0.90;;;;;;;;;;5028929;28;20040;-57
2021/01/24 04:30:11;;;;;;;1.50;0.80;;;;;;;;;;5028100;28;20436;-55
2021/01/24 04:32:37;;;;;;;3.50;1.60;;;;;;;;;;5028573;28;20099;-57
2021/01/24 04:35:04;;;;;;;1.42;0.80;;;;;;;;;;5020972;28;20414;-57
2021/01/24 04:37:30;;;;;;;2.05;0.85;;;;;;;;;;5029611;28;20029;-55
2021/01/24 04:39:56;;;;;;;1.52;0.80;;;;;;;;;;5032262;28;20049;-55
2021/01/24 04:42:22;;;;;;;2.03;0.90;;;;;;;;;;5029107;28;20037;-56
2021/01/24 04:44:49;;;;;;;3.30;1.60;;;;;;;;;;5031069;28;20381;-55
2021/01/24 04:47:16;;;;;;;5.25;2.10;;;;;;;;;;5028644;28;20025;-56
2021/01/24 04:49:42;;;;;;;5.00;1.95;;;;;;;;;;5030093;28;20535;-55
2021/01/24 04:52:08;;;;;;;3.58;1.90;;;;;;;;;;5027989;28;20107;-56
2021/01/24 04:54:35;;;;;;;5.25;2.15;;;;;;;;;;5029725;28;20032;-55
2021/01/24 04:57:02;;;;;;;7.32;2.90;;;;;;;;;;5027186;28;20067;-57
2021/01/24 04:59:28;;;;;;;6.03;2.13;;;;;;;;;;5029170;28;20025;-57
2021/01/24 05:01:54;;;;;;;2.38;1.10;;;;;;;;;;5031050;28;20033;-56
2021/01/24 05:04:20;;;;;;;1.75;0.98;;;;;;;;;;5028160;28;20105;-55
2021/01/24 05:06:46;;;;;;;2.20;0.80;;;;;;;;;;5022374;28;20461;-57
2021/01/24 05:09:17;;;;;;;2.38;0.90;;;;;;;;;;5027184;28;20036;-55
2021/01/24 05:11:49;;;;;;;1.48;0.80;;;;;;;;;;5028984;28;20036;-55
2021/01/24 05:14:15;;;;;;;;;;;;;;;;;;5020237;28;20041;-56
2021/01/24 05:16:42;;;;;;;3.30;1.30;;;;;;;;;;5029012;28;19913;-55
2021/01/24 05:19:08;;;;;;;2.78;1.20;;;;;;;;;;5031568;28;20388;-56
2021/01/24 05:21:35;;;;;;;2.58;1.00;;;;;;;;;;5028446;28;20048;-56
2021/01/24 05:24:01;;;;;;;2.65;1.00;;;;;;;;;;5030146;28;20022;-56
2021/01/24 05:26:27;;;;;;;9.60;5.68;;;;;;;;;;5027511;28;20042;-56
2021/01/24 05:28:53;;;;;;;9.10;5.45;;;;;;;;;;5029297;28;20029;-56
2021/01/24 05:31:22;;;;;;;5.88;2.92;;;;;;;;;;5026597;28;20116;-56
2021/01/24 05:33:49;;;;;;;8.00;3.70;;;;;;;;;;5026715;28;20040;-54
2021/01/24 05:36:15;;;;;;;4.22;1.80;;;;;;;;;;5018518;28;20021;-56
2021/01/24 05:38:42;;;;;;;2.83;1.30;;;;;;;;;;5028771;28;20056;-57
2021/01/24 05:41:09;;;;;;;4.00;1.42;;;;;;;;;;5030706;28;20409;-56
2021/01/24 05:43:36;;;;;;;2.88;1.52;;;;;;;;;;5027842;28;20080;-55
2021/01/24 05:46:03;;;;;;;2.47;1.30;;;;;;;;;;5029828;28;20045;-56
2021/01/24 05:48:29;;;;;;;3.17;1.30;;;;;;;;;;5027433;28;20021;-56
2021/01/24 05:50:55;;;;;;;3.53;0.90;;;;;;;;;;5028925;28;20029;-55
2021/01/24 05:53:23;;;;;;;1.70;0.65;;;;;;;;;;5026623;28;20029;-55
2021/01/24 05:55:49;;;;;;;1.65;0.77;;;;;;;;;;5029112;28;20029;-56
2021/01/24 05:58:15;;;;;;;2.95;0.77;;;;;;;;;;5017416;28;20092;-56
2021/01/24 06:00:43;;;;;;;3.63;1.27;;;;;;;;;;5028470;28;20104;-55
2021/01/24 06:03:10;;;;;;;5.53;2.55;;;;;;;;;;5024459;28;20052;-55
2021/01/24 06:05:37;;;;;;;3.55;1.98;;;;;;;;;;5031239;28;20034;-56
2021/01/24 06:08:03;;;;;;;4.05;2.65;;;;;;;;;;5024725;28;20034;-56
2021/01/24 06:10:29;;;;;;;5.22;2.55;;;;;;;;;;5018062;28;20041;-55
2021/01/24 06:12:58;;;;;;;4.05;1.88;;;;;;;;;;5018740;28;20477;-55
2021/01/24 06:15:25;;;;;;;7.13;4.78;;;;;;;;;;5027364;28;20037;-55
2021/01/24 06:17:54;;;;;;;8.10;4.95;;;;;;;;;;5028922;28;20168;-54
2021/01/24 06:20:21;;;;;;;9.38;5.90;;;;;;;;;;5026932;28;20116;-55
2021/01/24 06:22:50;;;;;;;16.80;9.05;;;;;;;;;;5016190;28;20022;-55
2021/01/24 06:25:27;;;;;;;5.07;2.97;;;;;;;;;;5021785;28;20082;-54
2021/01/24 06:27:55;;;;;;;12.43;7.55;;;;;;;;;;5024721;28;20029;-56
2021/01/24 06:30:23;;;;;;;10.10;5.53;;;;;;;;;;5018739;28;20025;-55
2021/01/24 06:32:49;;;;;;;10.68;6.47;;;;;;;;;;5023920;28;20050;-56
2021/01/24 06:35:21;;;;;;;19.70;11.25;;;;;;;;;;5026182;28;20138;-55
2021/01/24 06:37:47;;;;;;;;;;;;;;;;;;5025129;28;20375;-54
2021/01/24 06:40:27;;;;;;;25.95;15.68;;;;;;;;;;5027816;28;19984;-55
2021/01/24 06:42:56;;;;;;;15.43;9.85;;;;;;;;;;5029063;28;20032;-54
2021/01/24 06:45:22;;;;;;;7.35;5.25;;;;;;;;;;5027250;28;20037;-55
2021/01/24 06:47:48;;;;;;;10.73;5.93;;;;;;;;;;5028198;28;20160;-55
2021/01/24 06:50:38;;;;;;;5.20;3.22;;;;;;;;;;5027060;28;20040;-55
2021/01/24 06:53:04;;;;;;;5.03;3.22;;;;;;;;;;5023275;28;20030;-55
2021/01/24 06:55:31;;;;;;;6.35;4.97;;;;;;;;;;5025982;28;20037;-56
2021/01/24 06:57:57;;;;;;;7.70;5.30;;;;;;;;;;5018931;28;20018;-55
2021/01/24 07:00:24;;;;;;;4.13;3.00;;;;;;;;;;5020927;28;20030;-56
2021/01/24 07:02:50;;;;;;;5.20;2.30;;;;;;;;;;5019464;28;20033;-56
2021/01/24 07:05:22;;;;;;;4.60;2.60;;;;;;;;;;5026670;28;20045;-56
2021/01/24 07:07:48;;;;;;;4.40;1.98;;;;;;;;;;5019900;28;20017;-55
2021/01/24 07:10:33;;;;;;;8.65;4.57;;;;;;;;;;5026836;28;20257;-56
2021/01/24 07:12:59;;;;;;;20.40;10.20;;;;;;;;;;5029903;28;20026;-56
2021/01/24 07:15:25;;;;;;;11.38;6.60;;;;;;;;;;5026269;28;20036;-55
2021/01/24 07:17:55;;;;;;;8.70;4.20;;;;;;;;;;5028078;28;20029;-56
2021/01/24 07:20:21;;;;;;;13.90;7.03;;;;;;;;;;5022789;28;20033;-56
2021/01/24 07:22:48;;;;;;;8.27;4.80;;;;;;;;;;5033442;28;20485;-56
2021/01/24 07:25:14;;;;;;;10.40;5.45;;;;;;;;;;5027047;28;20546;-56
2021/01/24 07:27:40;;;;;;;7.97;4.28;;;;;;;;;;5024961;28;20528;-55
2021/01/24 07:30:06;;;;;;;13.45;8.30;;;;;;;;;;5026639;28;20032;-55
2021/01/24 07:32:32;;;;;;;12.23;7.60;;;;;;;;;;5034431;28;20425;-55
2021/01/24 07:34:58;;;;;;;33.80;20.67;;;;;;;;;;5024773;28;20481;-60
2021/01/24 07:37:25;;;;;;;15.93;10.30;;;;;;;;;;5047034;28;20025;-55
2021/01/24 07:39:52;;;;;;;12.10;7.63;;;;;;;;;;5035228;28;20025;-56
2021/01/24 07:42:18;;;;;;;15.95;9.38;;;;;;;;;;5035124;28;20033;-55
2021/01/24 07:44:45;;;;;;;15.80;8.95;;;;;;;;;;5034484;28;20342;-55
2021/01/24 07:47:12;;;;;;;11.63;6.53;;;;;;;;;;5027249;28;20087;-58
2021/01/24 07:49:39;;;;;;;10.48;4.85;;;;;;;;;;5040145;28;20489;-57
2021/01/24 07:52:05;;;;;;;7.47;5.28;;;;;;;;;;5034740;28;20069;-56
2021/01/24 07:54:31;;;;;;;7.93;3.60;;;;;;;;;;5039004;28;20030;-56
2021/01/24 07:56:58;;;;;;;4.88;2.45;;;;;;;;;;5034611;28;20056;-56
2021/01/24 07:59:25;;;;;;;5.95;3.50;;;;;;;;;;5034454;28;20104;-59
2021/01/24 08:01:52;;;;;;;9.75;4.55;;;;;;;;;;5033385;28;20025;-56
2021/01/24 08:04:21;;;;;;;8.60;4.65;;;;;;;;;;5033173;28;20033;-59
2021/01/24 08:06:47;;;;;;;6.10;2.45;;;;;;;;;;5034434;28;20036;-56
2021/01/24 08:09:13;;;;;;;6.82;2.40;;;;;;;;;;5034115;28;20057;-57
2021/01/24 08:11:39;;;;;;;4.20;1.88;;;;;;;;;;5034494;28;20095;-58
2021/01/24 08:14:05;;;;;;;6.30;2.55;;;;;;;;;;5034016;28;20473;-58
2021/01/24 08:16:42;;;;;;;3.85;2.00;;;;;;;;;;5034347;28;20025;-58
2021/01/24 08:19:10;;;;;;;3.72;1.90;;;;;;;;;;5029786;28;20034;-57
2021/01/24 08:21:37;;;;;;;9.50;5.25;;;;;;;;;;5034045;28;20032;-59
2021/01/24 08:24:03;;;;;;;6.07;2.45;;;;;;;;;;5019816;28;20397;-57
2021/01/24 08:26:30;;;;;;;6.35;2.70;;;;;;;;;;5033538;28;20449;-59
2021/01/24 08:28:57;;;;;;;7.70;2.60;;;;;;;;;;5033260;28;20076;-57
2021/01/24 08:31:23;;;;;;;4.65;2.38;;;;;;;;;;5033618;28;20041;-57
2021/01/24 08:33:51;;;;;;;6.22;3.22;;;;;;;;;;5033077;28;20381;-57
2021/01/24 08:36:18;;;;;;;15.02;8.43;;;;;;;;;;5032643;28;20029;-58
2021/01/24 08:38:45;;;;;;;8.48;2.58;;;;;;;;;;5033874;28;20022;-59
2021/01/24 08:41:12;;;;;;;17.30;9.90;;;;;;;;;;5031479;28;20513;-57
2021/01/24 08:43:38;;;;;;;7.00;4.40;;;;;;;;;;5033733;28;20028;-56
2021/01/24 08:46:19;;;;;;;8.90;4.80;;;;;;;;;;5022624;28;20512;-57
2021/01/24 08:48:45;;;;;;;8.18;5.07;;;;;;;;;;5021027;28;20068;-59
2021/01/24 08:51:11;;;;;;;11.13;6.25;;;;;;;;;;5033727;28;20496;-56
2021/01/24 08:53:37;;;;;;;17.45;11.23;;;;;;;;;;5032776;28;20021;-56
2021/01/24 08:56:03;;;;;;;16.75;10.02;;;;;;;;;;5033322;28;20106;-57
2021/01/24 08:58:29;;;;;;;18.20;8.60;;;;;;;;;;5033432;28;20030;-62
2021/01/24 09:01:03;;;;;;;14.00;7.30;;;;;;;;;;5033047;28;20025;-62
2021/01/24 09:03:29;;;;;;;14.63;7.00;;;;;;;;;;5032885;28;20022;-62
2021/01/24 09:05:55;;;;;;;14.80;8.85;;;;;;;;;;5032595;28;20032;-63
2021/01/24 09:08:30;;;;;;;9.70;5.43;;;;;;;;;;5032509;28;20029;-59
2021/01/24 09:10:56;;;;;;;14.75;6.45;;;;;;;;;;5014074;28;20041;-60
2021/01/24 09:13:22;;;;;;;23.85;9.40;;;;;;;;;;5017935;28;20025;-60
2021/01/24 09:15:48;;;;;;;31.08;17.08;;;;;;;;;;5020912;28;20032;-56
2021/01/24 09:18:14;;;;;;;31.10;18.55;;;;;;;;;;5031835;28;20052;-56
2021/01/24 09:20:40;;;;;;;36.83;22.63;;;;;;;;;;5033012;28;20033;-61
2021/01/24 09:23:06;;;;;;;19.42;12.05;;;;;;;;;;5032800;28;20029;-59
2021/01/24 09:25:32;;;;;;;15.40;8.55;;;;;;;;;;5032589;28;20037;-58
2021/01/24 09:27:58;;;;;;;14.20;7.95;;;;;;;;;;5032974;28;20024;-57
2021/01/24 09:30:24;;;;;;;14.82;9.05;;;;;;;;;;5032570;28;20025;-56
2021/01/24 09:32:51;;;;;;;17.88;8.60;;;;;;;;;;5031842;28;20042;-56
2021/01/24 09:35:17;;;;;;;10.60;6.13;;;;;;;;;;5032532;28;20034;-56
2021/01/24 09:37:43;;;;;;;26.67;17.42;;;;;;;;;;5031580;28;20068;-55
2021/01/24 09:40:09;;;;;;;40.88;24.38;;;;;;;;;;5032686;28;20022;-56
2021/01/24 09:42:35;;;;;;;13.77;8.43;;;;;;;;;;5032453;28;20029;-56
2021/01/24 09:45:02;;;;;;;13.95;5.65;;;;;;;;;;5023286;28;20583;-55
2021/01/24 09:47:28;;;;;;;12.80;7.15;;;;;;;;;;5021474;28;20503;-57
2021/01/24 09:49:54;;;;;;;9.07;3.65;;;;;;;;;;5019983;28;20018;-59
2021/01/24 09:52:20;;;;;;;16.30;9.65;;;;;;;;;;5032268;28;20140;-56
2021/01/24 09:54:46;;;;;;;18.48;10.20;;;;;;;;;;5031212;28;20021;-56
2021/01/24 09:57:12;;;;;;;8.18;4.70;;;;;;;;;;5029195;28;20025;-55
2021/01/24 09:59:38;;;;;;;8.35;4.70;;;;;;;;;;5028366;28;20096;-55
2021/01/24 10:02:04;;;;;;;7.75;5.13;;;;;;;;;;5027324;28;20030;-55
2021/01/24 10:04:30;;;;;;;15.65;11.00;;;;;;;;;;5030215;28;20048;-56
2021/01/24 10:06:56;;;;;;;7.03;4.70;;;;;;;;;;5027934;28;20036;-57
2021/01/24 10:09:22;;;;;;;7.07;4.25;;;;;;;;;;5030832;28;20026;-59
2021/01/24 10:11:49;;;;;;;5.35;3.55;;;;;;;;;;5029318;28;20075;-56
2021/01/24 10:14:15;;;;;;;4.85;2.90;;;;;;;;;;5028765;28;20507;-58
2021/01/24 10:16:41;;;;;;;3.42;2.50;;;;;;;;;;5014006;28;20105;-57
2021/01/24 10:19:07;;;;;;;4.95;3.63;;;;;;;;;;5026739;28;20048;-59
2021/01/24 10:21:33;;;;;;;4.60;3.50;;;;;;;;;;5022747;28;20014;-56
2021/01/24 10:23:59;;;;;;;4.50;2.83;;;;;;;;;;5025249;28;20013;-56
2021/01/24 10:26:25;;;;;;;6.43;3.53;;;;;;;;;;5030632;28;20052;-58
2021/01/24 10:28:51;;;;;;;5.38;2.88;;;;;;;;;;5026411;28;20017;-56
2021/01/24 10:31:17;;;;;;;5.53;3.25;;;;;;;;;;5028769;28;20071;-59
2021/01/24 10:33:43;;;;;;;7.22;3.80;;;;;;;;;;5029171;28;20470;-59
2021/01/24 10:36:09;;;;;;;6.95;3.95;;;;;;;;;;5028990;28;20029;-56
2021/01/24 10:38:35;;;;;;;6.78;3.75;;;;;;;;;;5026007;28;20021;-59
2021/01/24 10:41:01;;;;;;;9.43;4.95;;;;;;;;;;5026536;28;20061;-60
2021/01/24 10:43:27;;;;;;;9.55;6.45;;;;;;;;;;5028677;28;20021;-59
2021/01/24 10:45:53;;;;;;;6.72;4.15;;;;;;;;;;5027036;28;20098;-57
2021/01/24 10:48:19;;;;;;;6.85;4.13;;;;;;;;;;5028605;28;20025;-58
2021/01/24 10:50:45;;;;;;;5.15;2.80;;;;;;;;;;5028993;28;20131;-59
2021/01/24 10:53:11;;;;;;;4.90;3.15;;;;;;;;;;5026985;28;20013;-57
2021/01/24 10:55:40;;;;;;;8.05;3.13;;;;;;;;;;5021763;28;20076;-57
2021/01/24 10:58:06;;;;;;;7.93;3.35;;;;;;;;;;5019063;28;20041;-57
2021/01/24 11:00:32;;;;;;;4.50;2.80;;;;;;;;;;5028461;28;20026;-55
2021/01/24 11:02:59;;;;;;;5.00;2.75;;;;;;;;;;5030521;28;20041;-57
2021/01/24 11:05:25;;;;;;;6.07;3.47;;;;;;;;;;5028215;28;20037;-60
2021/01/24 11:07:52;;;;;;;9.63;5.22;;;;;;;;;;5025222;28;20033;-60
2021/01/24 11:10:18;;;;;;;7.13;3.72;;;;;;;;;;5026845;28;20026;-57
2021/01/24 11:12:44;;;;;;;6.20;3.00;;;;;;;;;;5032113;28;20053;-59
2021/01/24 11:15:10;;;;;;;10.23;4.35;;;;;;;;;;5027805;28;20037;-57
2021/01/24 11:17:37;;;;;;;8.27;4.60;;;;;;;;;;5027918;28;20424;-56
2021/01/24 11:20:04;;;;;;;14.43;11.13;;;;;;;;;;5018172;28;20022;-60
2021/01/24 11:22:30;;;;;;;8.40;4.45;;;;;;;;;;5028993;28;20029;-58
2021/01/24 11:24:56;;;;;;;7.20;4.60;;;;;;;;;;5031395;28;20064;-62
2021/01/24 11:27:22;;;;;;;7.78;3.95;;;;;;;;;;5031428;28;20036;-60
2021/01/24 11:29:48;;;;;;;8.38;4.30;;;;;;;;;;5030565;28;20096;-60
2021/01/24 11:32:14;;;;;;;7.75;4.72;;;;;;;;;;5024324;28;20054;-58
2021/01/24 11:34:40;;;;;;;7.03;4.28;;;;;;;;;;5020266;28;20414;-58
2021/01/24 11:37:08;;;;;;;7.57;4.80;;;;;;;;;;5032493;28;20117;-56
2021/01/24 11:39:34;;;;;;;5.10;3.65;;;;;;;;;;5031593;28;20025;-57
2021/01/24 11:42:01;;;;;;;8.43;3.55;;;;;;;;;;5033995;28;20075;-61
2021/01/24 11:44:27;;;;;;;4.10;2.80;;;;;;;;;;5029582;28;20113;-56
2021/01/24 11:46:53;;;;;;;5.35;2.80;;;;;;;;;;5031887;28;20037;-55
2021/01/24 11:49:20;;;;;;;7.07;2.85;;;;;;;;;;5029853;28;20148;-55
2021/01/24 11:51:46;;;;;;;8.27;3.95;;;;;;;;;;5030240;28;20029;-55
2021/01/24 11:54:12;;;;;;;11.60;8.13;;;;;;;;;;5024189;28;20032;-59
2021/01/24 11:56:38;;;;;;;12.25;8.70;;;;;;;;;;5018801;28;20428;-58
2021/01/24 11:59:04;;;;;;;13.18;8.25;;;;;;;;;;5032115;28;20096;-56
2021/01/24 12:01:30;;;;;;;9.30;6.10;;;;;;;;;;5030065;28;20549;-56
2021/01/24 12:03:56;;;;;;;6.50;4.55;;;;;;;;;;5030862;28;20092;-60
2021/01/24 12:06:22;;;;;;;6.55;3.25;;;;;;;;;;5018524;28;20069;-56
2021/01/24 12:08:48;;;;;;;26.10;15.00;;;;;;;;;;5020879;28;20033;-56
2021/01/24 12:11:14;;;;;;;24.58;16.05;;;;;;;;;;5030906;28;20105;-56
2021/01/24 12:13:40;;;;;;;8.68;5.47;;;;;;;;;;5031731;28;20022;-55
2021/01/24 12:16:06;;;;;;;4.82;2.58;;;;;;;;;;5030644;28;20095;-57
2021/01/24 12:18:32;;;;;;;15.38;9.07;;;;;;;;;;5031958;28;20026;-59
2021/01/24 12:20:58;;;;;;;25.52;18.13;;;;;;;;;;5031944;28;20091;-60
2021/01/24 12:23:25;;;;;;;20.30;12.20;;;;;;;;;;5019590;28;20069;-60
2021/01/24 12:25:51;;;;;;;7.38;3.42;;;;;;;;;;5029520;28;20033;-60
2021/01/24 12:28:17;;;;;;;9.52;6.10;;;;;;;;;;5027846;28;20029;-60
2021/01/24 12:30:43;;;;;;;19.13;11.70;;;;;;;;;;5026293;28;20033;-56
2021/01/24 12:33:11;;;;;;;14.93;10.65;;;;;;;;;;5032506;28;20046;-57
2021/01/24 12:35:38;;;;;;;14.40;8.73;;;;;;;;;;5031851;28;20396;-56
2021/01/24 12:38:05;;;;;;;13.48;8.25;;;;;;;;;;5032552;28;20048;-59
2021/01/24 12:40:31;;;;;;;37.72;20.42;;;;;;;;;;5033445;28;20423;-58
2021/01/24 12:42:57;;;;;;;24.02;15.40;;;;;;;;;;5030232;28;20025;-55
2021/01/24 12:45:23;;;;;;;15.70;9.32;;;;;;;;;;5032142;28;20108;-55
2021/01/24 12:47:49;;;;;;;47.30;23.10;;;;;;;;;;5032528;28;20040;-56
2021/01/24 12:50:16;;;;;;;16.23;9.60;;;;;;;;;;5031200;28;20029;-55
2021/01/24 12:52:42;;;;;;;11.27;6.63;;;;;;;;;;5029554;28;20558;-56
2021/01/24 12:55:08;;;;;;;13.15;7.70;;;;;;;;;;5031815;28;20473;-56
2021/01/24 12:57:35;;;;;;;18.90;12.95;;;;;;;;;;5031076;28;20672;-56
2021/01/24 13:00:01;;;;;;;10.60;6.90;;;;;;;;;;5028937;28;20026;-60
2021/01/24 13:02:27;;;;;;;11.60;6.82;;;;;;;;;;5030334;28;20384;-55
2021/01/24 13:04:53;;;;;;;12.18;7.50;;;;;;;;;;5029811;28;20564;-58
2021/01/24 13:07:19;;;;;;;10.50;6.90;;;;;;;;;;5029585;28;20065;-55
2021/01/24 13:09:45;;;;;;;13.80;8.18;;;;;;;;;;5032202;28;20076;-57
2021/01/24 13:12:11;;;;;;;9.52;6.28;;;;;;;;;;5029990;28;20036;-56
2021/01/24 13:14:38;;;;;;;10.45;6.60;;;;;;;;;;5030343;28;20510;-60
2021/01/24 13:17:04;;;;;;;4.63;3.10;;;;;;;;;;5029848;28;20033;-57
2021/01/24 13:19:30;;;;;;;9.60;6.22;;;;;;;;;;5030421;28;20075;-57
2021/01/24 13:21:56;;;;;;;9.85;6.05;;;;;;;;;;5030783;28;20022;-60
2021/01/24 13:24:23;;;;;;;5.72;3.47;;;;;;;;;;5028632;28;20026;-54
2021/01/24 13:26:49;;;;;;;7.78;4.80;;;;;;;;;;5028155;28;20029;-59
2021/01/24 13:29:15;;;;;;;6.25;3.80;;;;;;;;;;5029738;28;20029;-59
2021/01/24 13:31:41;;;;;;;11.05;5.57;;;;;;;;;;5031002;28;20087;-59
2021/01/24 13:34:07;;;;;;;5.65;3.50;;;;;;;;;;5024300;28;20018;-58
2021/01/24 13:36:33;;;;;;;6.88;4.00;;;;;;;;;;5013108;28;20049;-56
2021/01/24 13:39:00;;;;;;;6.70;3.65;;;;;;;;;;5020179;28;20496;-56
2021/01/24 13:41:26;;;;;;;22.25;13.75;;;;;;;;;;5029031;28;20029;-57
2021/01/24 13:43:52;;;;;;;46.50;29.65;;;;;;;;;;5025866;28;20025;-56
2021/01/24 13:46:18;;;;;;;42.60;29.15;;;;;;;;;;5028179;28;20033;-57
2021/01/24 13:48:44;;;;;;;21.52;13.77;;;;;;;;;;5029364;28;21120;-56
2021/01/24 13:51:10;;;;;;;28.23;17.48;;;;;;;;;;5027933;28;20017;-57
2021/01/24 13:53:36;;;;;;;33.90;21.67;;;;;;;;;;5030529;28;20095;-59
2021/01/24 13:56:02;;;;;;;22.08;14.23;;;;;;;;;;5029735;28;20050;-57
2021/01/24 13:58:28;;;;;;;9.07;5.25;;;;;;;;;;5029553;28;20392;-57
2021/01/24 14:00:54;;;;;;;13.73;8.88;;;;;;;;;;5025724;28;20059;-56
2021/01/24 14:03:20;;;;;;;27.02;19.30;;;;;;;;;;5028731;28;20060;-56
2021/01/24 14:05:47;;;;;;;17.70;11.40;;;;;;;;;;5031197;28;20041;-55
2021/01/24 14:08:13;;;;;;;15.60;9.68;;;;;;;;;;5028879;28;20033;-55
2021/01/24 14:10:39;;;;;;;15.23;9.45;;;;;;;;;;5027323;28;20044;-56
2021/01/24 14:13:05;;;;;;;14.30;9.15;;;;;;;;;;5028806;28;20056;-59
2021/01/24 14:15:31;;;;;;;24.33;17.42;;;;;;;;;;5021408;28;20048;-58
2021/01/24 14:17:58;;;;;;;23.95;16.50;;;;;;;;;;5021753;28;20468;-59
2021/01/24 14:20:24;;;;;;;13.13;9.52;;;;;;;;;;5029887;28;20033;-55
2021/01/24 14:22:51;;;;;;;51.65;29.13;;;;;;;;;;5029776;28;20029;-59
2021/01/24 14:25:17;;;;;;;40.65;23.67;;;;;;;;;;5028678;28;20072;-55
2021/01/24 14:27:43;;;;;;;23.10;14.25;;;;;;;;;;5026906;28;20504;-56
2021/01/24 14:30:10;;;;;;;22.67;12.88;;;;;;;;;;5028731;28;20045;-56
2021/01/24 14:32:36;;;;;;;13.98;7.70;;;;;;;;;;5031673;28;20459;-59
2021/01/24 14:35:02;;;;;;;14.38;8.20;;;;;;;;;;5033841;28;20067;-61